Time;durP1;ratioP1;P1;durP2;ratioP2;P2;SDS_P1;SDS_P2;PMS_P1;PMS_P2;Temp;Humidity;BMP_temperature;BMP_pressure;BME280_temperature;BME280_humidity;BME280_pressure;Samples;Min_cycle;Max_cycle;Signal;HPM_P1;HPM_P2
2023/04/20 00:01:03;;;;;;;24.30;15.93;;;;;;;;;;767153;181;917988;-62
2023/04/20 00:03:31;;;;;;;24.60;15.53;;;;;;;;;;774720;182;920074;-60
2023/04/20 00:05:55;;;;;;;25.83;17.33;;;;;;;;;;759260;182;918251;-62
2023/04/20 00:08:21;;;;;;;24.37;15.87;;;;;;;;;;743482;184;917805;-61
2023/04/20 00:10:46;;;;;;;24.77;15.47;;;;;;;;;;768880;182;907186;-61
2023/04/20 00:13:12;;;;;;;28.17;16.63;;;;;;;;;;754046;184;907862;-60
2023/04/20 00:15:38;;;;;;;25.00;15.50;;;;;;;;;;751102;184;918523;-60
2023/04/20 00:18:04;;;;;;;25.40;17.43;;;;;;;;;;752716;184;918934;-61
2023/04/20 00:20:30;;;;;;;19.27;13.00;;;;;;;;;;767462;180;913726;-60
2023/04/20 00:22:56;;;;;;;28.37;19.30;;;;;;;;;;763205;182;927832;-61
2023/04/20 00:25:22;;;;;;;25.97;14.30;;;;;;;;;;762034;182;926295;-62
2023/04/20 00:27:47;;;;;;;19.90;11.82;;;;;;;;;;772127;182;917742;-61
2023/04/20 00:30:14;;;;;;;26.03;18.40;;;;;;;;;;764530;182;818826;-61
2023/04/20 00:32:40;;;;;;;27.53;17.60;;;;;;;;;;767325;181;1012065;-61
2023/04/20 00:35:05;;;;;;;26.73;16.80;;;;;;;;;;772002;182;821475;-60
2023/04/20 00:37:31;;;;;;;33.43;18.20;;;;;;;;;;756715;180;916389;-61
2023/04/20 00:39:57;;;;;;;34.47;16.40;;;;;;;;;;754594;182;923024;-62
2023/04/20 00:42:23;;;;;;;30.92;20.20;;;;;;;;;;761579;182;815695;-61
2023/04/20 00:44:49;;;;;;;28.83;19.07;;;;;;;;;;768681;182;818666;-62
2023/04/20 00:47:15;;;;;;;30.87;15.27;;;;;;;;;;763867;182;817450;-60
2023/04/20 00:49:41;;;;;;;14.40;10.57;;;;;;;;;;763608;183;816935;-61
2023/04/20 00:52:07;;;;;;;31.00;17.63;;;;;;;;;;772991;182;716426;-61
2023/04/20 00:54:33;;;;;;;27.20;14.60;;;;;;;;;;754546;185;884564;-61
2023/04/20 00:56:59;;;;;;;21.67;14.70;;;;;;;;;;752887;185;919208;-61
2023/04/20 00:59:24;;;;;;;26.03;14.43;;;;;;;;;;766290;182;923035;-60
2023/04/20 01:01:50;;;;;;;35.10;21.50;;;;;;;;;;755928;182;919321;-60
2023/04/20 01:04:16;;;;;;;31.92;20.40;;;;;;;;;;764028;182;918536;-60
2023/04/20 01:06:42;;;;;;;29.70;19.57;;;;;;;;;;772874;179;920030;-60
2023/04/20 01:09:09;;;;;;;30.63;19.00;;;;;;;;;;766906;182;917232;-61
2023/04/20 01:11:34;;;;;;;31.87;19.93;;;;;;;;;;764391;182;916525;-61
2023/04/20 01:14:00;;;;;;;29.13;14.63;;;;;;;;;;767935;182;918415;-62
2023/04/20 01:16:26;;;;;;;29.13;17.33;;;;;;;;;;770472;182;913531;-60
2023/04/20 01:18:51;;;;;;;32.07;17.30;;;;;;;;;;757743;182;919713;-60
2023/04/20 01:21:17;;;;;;;28.10;16.90;;;;;;;;;;759430;182;918464;-60
2023/04/20 01:23:43;;;;;;;30.20;19.15;;;;;;;;;;766965;182;1021116;-61
2023/04/20 01:26:09;;;;;;;35.53;19.03;;;;;;;;;;768028;182;931367;-61
2023/04/20 01:28:35;;;;;;;31.62;18.27;;;;;;;;;;767461;182;921197;-60
2023/04/20 01:31:02;;;;;;;30.77;18.73;;;;;;;;;;772092;181;920556;-60
2023/04/20 01:33:27;;;;;;;36.23;21.50;;;;;;;;;;761871;182;915242;-61
2023/04/20 01:35:53;;;;;;;21.67;12.10;;;;;;;;;;759407;182;921956;-61
2023/04/20 01:38:20;;;;;;;32.70;17.80;;;;;;;;;;766156;181;919173;-61
2023/04/20 01:40:45;;;;;;;36.40;21.17;;;;;;;;;;772590;181;921880;-60
2023/04/20 01:43:11;;;;;;;33.13;19.00;;;;;;;;;;760727;183;920827;-60
2023/04/20 01:45:37;;;;;;;26.80;15.43;;;;;;;;;;755059;184;921354;-61
2023/04/20 01:48:02;;;;;;;32.87;15.23;;;;;;;;;;767093;182;923297;-62
2023/04/20 01:50:28;;;;;;;27.57;14.30;;;;;;;;;;762295;182;919302;-61
2023/04/20 01:52:54;;;;;;;23.77;14.70;;;;;;;;;;764500;182;770209;-62
2023/04/20 01:55:20;;;;;;;37.70;19.53;;;;;;;;;;769369;182;919434;-61
2023/04/20 01:57:46;;;;;;;29.37;15.18;;;;;;;;;;764179;182;881601;-61
2023/04/20 02:00:12;;;;;;;34.33;17.40;;;;;;;;;;764128;182;817452;-61
2023/04/20 02:02:38;;;;;;;30.17;15.20;;;;;;;;;;765847;181;941166;-61
2023/04/20 02:05:04;;;;;;;37.17;20.40;;;;;;;;;;756960;185;812585;-61
2023/04/20 02:07:30;;;;;;;35.13;17.73;;;;;;;;;;749994;185;816796;-60
2023/04/20 02:09:56;;;;;;;44.20;19.53;;;;;;;;;;741103;187;919165;-61
2023/04/20 02:12:21;;;;;;;29.43;17.17;;;;;;;;;;775018;181;811236;-60
2023/04/20 02:14:47;;;;;;;35.93;17.93;;;;;;;;;;764772;181;918863;-61
2023/04/20 02:17:13;;;;;;;35.53;19.27;;;;;;;;;;765940;182;918815;-61
2023/04/20 02:19:39;;;;;;;27.87;15.87;;;;;;;;;;757350;183;918602;-61
2023/04/20 02:22:05;;;;;;;36.67;18.00;;;;;;;;;;752930;183;919159;-60
2023/04/20 02:24:31;;;;;;;32.97;15.97;;;;;;;;;;756741;182;871897;-61
2023/04/20 02:26:57;;;;;;;41.23;21.70;;;;;;;;;;762714;182;933618;-61
2023/04/20 02:29:22;;;;;;;39.70;17.97;;;;;;;;;;763680;183;919595;-60
2023/04/20 02:31:48;;;;;;;45.27;24.20;;;;;;;;;;756357;184;872761;-61
2023/04/20 02:34:14;;;;;;;44.27;17.43;;;;;;;;;;764041;181;919086;-60
2023/04/20 02:36:40;;;;;;;26.57;14.90;;;;;;;;;;771171;182;918629;-60
2023/04/20 02:39:06;;;;;;;45.90;23.40;;;;;;;;;;759994;181;949103;-61
2023/04/20 02:41:32;;;;;;;62.63;27.20;;;;;;;;;;756402;182;939579;-60
2023/04/20 02:43:57;;;;;;;36.57;21.60;;;;;;;;;;772452;181;919177;-60
2023/04/20 02:46:23;;;;;;;46.00;23.70;;;;;;;;;;759131;182;919287;-60
2023/04/20 02:48:49;;;;;;;57.57;26.17;;;;;;;;;;754470;181;920569;-61
2023/04/20 02:51:15;;;;;;;48.67;24.53;;;;;;;;;;755772;182;918190;-60
2023/04/20 02:53:41;;;;;;;54.30;25.97;;;;;;;;;;766245;182;915976;-61
2023/04/20 02:56:07;;;;;;;54.07;21.23;;;;;;;;;;764481;183;873100;-60
2023/04/20 02:58:32;;;;;;;43.63;25.03;;;;;;;;;;763031;180;916018;-61
2023/04/20 03:01:00;;;;;;;50.57;25.60;;;;;;;;;;767507;182;919442;-60
2023/04/20 03:03:26;;;;;;;59.63;27.93;;;;;;;;;;748586;184;921376;-60
2023/04/20 03:05:51;;;;;;;60.60;29.20;;;;;;;;;;754369;182;918410;-62
2023/04/20 03:08:17;;;;;;;59.37;23.60;;;;;;;;;;760719;182;919281;-61
2023/04/20 03:10:43;;;;;;;50.55;20.40;;;;;;;;;;753671;182;919004;-60
2023/04/20 03:13:08;;;;;;;61.50;26.97;;;;;;;;;;764169;182;918813;-60
2023/04/20 03:15:34;;;;;;;49.83;26.00;;;;;;;;;;768281;182;847380;-61
2023/04/20 03:18:00;;;;;;;38.17;23.50;;;;;;;;;;762657;182;918995;-60
2023/04/20 03:20:26;;;;;;;61.73;32.10;;;;;;;;;;758971;182;920399;-60
2023/04/20 03:22:52;;;;;;;70.57;27.57;;;;;;;;;;752706;183;919259;-61
2023/04/20 03:25:18;;;;;;;59.20;25.73;;;;;;;;;;768033;180;919141;-61
2023/04/20 03:27:46;;;;;;;58.40;26.20;;;;;;;;;;754902;183;917970;-61
2023/04/20 03:30:12;;;;;;;55.23;27.60;;;;;;;;;;759742;182;918989;-62
2023/04/20 03:32:38;;;;;;;55.47;28.70;;;;;;;;;;772093;182;919748;-62
2023/04/20 03:35:04;;;;;;;70.60;32.57;;;;;;;;;;763371;182;919779;-62
2023/04/20 03:37:30;;;;;;;66.97;28.30;;;;;;;;;;765460;182;925129;-62
2023/04/20 03:39:57;;;;;;;75.85;36.45;;;;;;;;;;768303;182;921820;-62
2023/04/20 03:42:23;;;;;;;65.60;24.20;;;;;;;;;;767226;182;921527;-61
2023/04/20 03:44:48;;;;;;;68.17;31.13;;;;;;;;;;768959;181;820628;-62
2023/04/20 03:47:14;;;;;;;50.60;26.23;;;;;;;;;;763788;181;820407;-61
2023/04/20 03:49:40;;;;;;;50.03;26.83;;;;;;;;;;764171;182;815748;-61
2023/04/20 03:52:06;;;;;;;68.43;29.07;;;;;;;;;;762777;183;914847;-62
2023/04/20 03:54:32;;;;;;;68.30;32.37;;;;;;;;;;757916;182;919708;-62
2023/04/20 03:56:58;;;;;;;51.90;28.40;;;;;;;;;;768648;182;915168;-62
2023/04/20 03:59:23;;;;;;;67.70;29.80;;;;;;;;;;767305;181;919177;-61
2023/04/20 04:01:50;;;;;;;57.77;27.70;;;;;;;;;;765404;182;802984;-61
2023/04/20 04:04:15;;;;;;;57.03;33.30;;;;;;;;;;767464;182;915646;-62
2023/04/20 04:06:41;;;;;;;50.57;28.90;;;;;;;;;;758942;182;915549;-62
2023/04/20 04:09:08;;;;;;;54.07;24.63;;;;;;;;;;763361;182;915122;-62
2023/04/20 04:11:33;;;;;;;56.90;22.60;;;;;;;;;;763422;182;918655;-62
2023/04/20 04:13:59;;;;;;;39.75;19.67;;;;;;;;;;769682;182;919514;-62
2023/04/20 04:16:24;;;;;;;49.03;27.07;;;;;;;;;;765053;182;919762;-62
2023/04/20 04:18:50;;;;;;;50.77;22.10;;;;;;;;;;762890;182;915823;-61
2023/04/20 04:21:16;;;;;;;42.97;19.90;;;;;;;;;;770040;182;922031;-62
2023/04/20 04:23:42;;;;;;;51.53;26.07;;;;;;;;;;763910;182;920085;-65
2023/04/20 04:26:08;;;;;;;49.03;23.70;;;;;;;;;;751402;185;932169;-61
2023/04/20 04:28:34;;;;;;;34.90;18.90;;;;;;;;;;770041;181;920125;-61
2023/04/20 04:31:00;;;;;;;59.70;27.57;;;;;;;;;;764385;181;910741;-61
2023/04/20 04:33:26;;;;;;;41.30;19.60;;;;;;;;;;775676;181;815893;-61
2023/04/20 04:35:52;;;;;;;64.37;33.67;;;;;;;;;;763625;181;917960;-62
2023/04/20 04:38:18;;;;;;;55.67;27.40;;;;;;;;;;772138;181;1022065;-61
2023/04/20 04:40:45;;;;;;;64.10;33.20;;;;;;;;;;769061;181;1018258;-62
2023/04/20 04:43:10;;;;;;;59.15;31.12;;;;;;;;;;755416;186;1021461;-63
2023/04/20 04:45:38;;;;;;;38.43;19.07;;;;;;;;;;769288;182;640709;-62
2023/04/20 04:48:04;;;;;;;60.60;29.17;;;;;;;;;;766857;182;917530;-62
2023/04/20 04:50:29;;;;;;;61.03;26.80;;;;;;;;;;760165;182;820334;-61
2023/04/20 04:52:55;;;;;;;61.30;31.20;;;;;;;;;;762045;182;809616;-63
2023/04/20 04:55:21;;;;;;;66.28;34.13;;;;;;;;;;759896;181;814214;-62
2023/04/20 04:57:47;;;;;;;43.47;21.67;;;;;;;;;;762484;182;620849;-61
2023/04/20 05:00:14;;;;;;;57.30;30.90;;;;;;;;;;763222;182;812743;-63
2023/04/20 05:02:39;;;;;;;65.53;34.50;;;;;;;;;;771407;182;909322;-62
2023/04/20 05:05:07;;;;;;;58.97;21.77;;;;;;;;;;765089;182;912436;-62
2023/04/20 05:07:32;;;;;;;46.50;20.80;;;;;;;;;;768447;182;867543;-62
2023/04/20 05:09:58;;;;;;;55.33;27.10;;;;;;;;;;772129;182;917271;-61
2023/04/20 05:12:24;;;;;;;66.90;31.53;;;;;;;;;;767265;181;879892;-62
2023/04/20 05:14:49;;;;;;;55.67;24.50;;;;;;;;;;766183;182;917840;-60
2023/04/20 05:17:15;;;;;;;40.10;20.47;;;;;;;;;;767353;182;919338;-60
2023/04/20 05:19:41;;;;;;;38.73;17.33;;;;;;;;;;764438;182;919210;-61
2023/04/20 05:22:07;;;;;;;61.47;30.10;;;;;;;;;;754822;183;920093;-60
2023/04/20 05:24:33;;;;;;;56.72;25.42;;;;;;;;;;752007;184;918871;-61
2023/04/20 05:26:58;;;;;;;68.70;33.60;;;;;;;;;;760397;182;918641;-60
2023/04/20 05:29:24;;;;;;;51.97;22.67;;;;;;;;;;758212;182;908063;-60
2023/04/20 05:31:50;;;;;;;60.42;29.10;;;;;;;;;;750402;184;922624;-60
2023/04/20 05:34:16;;;;;;;40.87;19.73;;;;;;;;;;762955;183;853956;-61
2023/04/20 05:36:42;;;;;;;65.90;28.43;;;;;;;;;;764806;182;918856;-61
2023/04/20 05:39:09;;;;;;;45.17;20.67;;;;;;;;;;763596;181;822826;-61
2023/04/20 05:41:34;;;;;;;55.17;29.00;;;;;;;;;;758381;182;918039;-60
2023/04/20 05:43:59;;;;;;;56.10;23.83;;;;;;;;;;764589;181;919392;-61
2023/04/20 05:46:25;;;;;;;57.17;26.13;;;;;;;;;;761245;179;918693;-60
2023/04/20 05:48:51;;;;;;;63.13;27.13;;;;;;;;;;758512;181;914565;-61
2023/04/20 05:51:17;;;;;;;65.20;30.98;;;;;;;;;;753203;185;919573;-60
2023/04/20 05:53:43;;;;;;;70.07;28.77;;;;;;;;;;765937;180;919201;-60
2023/04/20 05:56:09;;;;;;;54.07;24.77;;;;;;;;;;758982;182;889079;-59
2023/04/20 05:58:36;;;;;;;76.07;32.17;;;;;;;;;;770056;183;867527;-61
2023/04/20 06:01:02;;;;;;;74.13;32.73;;;;;;;;;;762077;182;921278;-62
2023/04/20 06:03:26;;;;;;;52.42;25.02;;;;;;;;;;757768;182;919768;-60
2023/04/20 06:05:52;;;;;;;43.20;21.23;;;;;;;;;;764223;184;921492;-61
2023/04/20 06:08:18;;;;;;;56.17;28.07;;;;;;;;;;761925;182;919849;-61
2023/04/20 06:10:44;;;;;;;64.07;31.10;;;;;;;;;;762791;182;1022645;-61
2023/04/20 06:13:10;;;;;;;57.97;26.00;;;;;;;;;;762112;185;917527;-60
2023/04/20 06:15:35;;;;;;;57.20;25.90;;;;;;;;;;748906;182;919566;-61
2023/04/20 06:18:01;;;;;;;66.23;33.73;;;;;;;;;;765852;182;919438;-61
2023/04/20 06:20:27;;;;;;;74.50;32.57;;;;;;;;;;766261;182;919710;-61
2023/04/20 06:22:53;;;;;;;61.67;21.47;;;;;;;;;;769609;182;917519;-61
2023/04/20 06:25:19;;;;;;;45.87;22.50;;;;;;;;;;753781;182;918767;-61
2023/04/20 06:27:45;;;;;;;42.07;20.73;;;;;;;;;;755647;183;921506;-61
2023/04/20 06:30:11;;;;;;;68.83;28.97;;;;;;;;;;757444;184;918657;-61
2023/04/20 06:32:37;;;;;;;73.63;32.10;;;;;;;;;;767514;182;918606;-61
2023/04/20 06:35:03;;;;;;;62.27;28.87;;;;;;;;;;767603;182;919306;-60
2023/04/20 06:37:29;;;;;;;69.63;26.80;;;;;;;;;;770282;182;918410;-61
2023/04/20 06:39:54;;;;;;;71.57;32.07;;;;;;;;;;763615;182;918833;-61
2023/04/20 06:42:20;;;;;;;58.20;26.20;;;;;;;;;;767987;181;619197;-61
2023/04/20 06:44:46;;;;;;;78.70;36.27;;;;;;;;;;752514;184;909582;-61
2023/04/20 06:47:12;;;;;;;130.70;52.37;;;;;;;;;;762053;185;919892;-61
2023/04/20 06:49:38;;;;;;;116.63;53.23;;;;;;;;;;753175;186;920416;-62
2023/04/20 06:52:05;;;;;;;55.67;21.93;;;;;;;;;;763715;182;631991;-60
2023/04/20 06:54:30;;;;;;;79.87;26.87;;;;;;;;;;773747;181;817725;-61
2023/04/20 06:56:56;;;;;;;62.90;25.50;;;;;;;;;;765103;182;917233;-61
2023/04/20 06:59:22;;;;;;;75.70;32.43;;;;;;;;;;750162;183;921201;-61
2023/04/20 07:01:48;;;;;;;73.10;35.07;;;;;;;;;;762429;185;919370;-61
2023/04/20 07:04:14;;;;;;;78.95;31.00;;;;;;;;;;753010;186;921879;-60
2023/04/20 07:06:40;;;;;;;57.83;24.93;;;;;;;;;;759209;183;920647;-60
2023/04/20 07:09:07;;;;;;;81.80;35.87;;;;;;;;;;766138;182;817090;-60
2023/04/20 07:11:31;;;;;;;59.93;30.13;;;;;;;;;;770443;182;917236;-60
2023/04/20 07:13:57;;;;;;;64.30;30.43;;;;;;;;;;764004;182;919536;-60
2023/04/20 07:16:23;;;;;;;53.37;21.90;;;;;;;;;;762728;182;913844;-60
2023/04/20 07:18:49;;;;;;;58.90;24.80;;;;;;;;;;771528;182;812808;-61
2023/04/20 07:21:15;;;;;;;63.63;23.20;;;;;;;;;;769056;182;816605;-61
2023/04/20 07:23:41;;;;;;;49.00;24.00;;;;;;;;;;765739;180;1045906;-60
2023/04/20 07:26:06;;;;;;;56.73;27.40;;;;;;;;;;774299;181;1025241;-60
2023/04/20 07:28:32;;;;;;;57.07;30.90;;;;;;;;;;768501;181;917028;-60
2023/04/20 07:30:58;;;;;;;51.67;23.67;;;;;;;;;;767551;181;911766;-60
2023/04/20 07:33:25;;;;;;;68.40;31.42;;;;;;;;;;767066;179;901088;-60
2023/04/20 07:35:50;;;;;;;51.53;22.30;;;;;;;;;;753917;183;919579;-60
2023/04/20 07:38:16;;;;;;;62.80;29.50;;;;;;;;;;736263;185;919618;-61
2023/04/20 07:40:42;;;;;;;40.80;18.83;;;;;;;;;;726076;191;920756;-60
2023/04/20 07:43:08;;;;;;;42.23;19.80;;;;;;;;;;766283;183;919225;-60
2023/04/20 07:45:34;;;;;;;52.97;23.23;;;;;;;;;;762167;184;919411;-60
2023/04/20 07:48:01;;;;;;;46.23;26.13;;;;;;;;;;758535;182;918604;-60
2023/04/20 07:50:26;;;;;;;51.03;24.43;;;;;;;;;;757468;184;923346;-62
2023/04/20 07:52:52;;;;;;;51.83;22.93;;;;;;;;;;754291;183;919916;-62
2023/04/20 07:55:18;;;;;;;53.73;24.70;;;;;;;;;;765369;183;919221;-62
2023/04/20 07:57:43;;;;;;;58.40;27.53;;;;;;;;;;755618;183;923425;-61
2023/04/20 08:00:10;;;;;;;43.27;18.10;;;;;;;;;;764567;182;919491;-61
2023/04/20 08:02:36;;;;;;;43.57;22.77;;;;;;;;;;767035;182;918893;-60
2023/04/20 08:05:02;;;;;;;56.07;25.63;;;;;;;;;;762543;182;922148;-61
2023/04/20 08:07:27;;;;;;;128.50;52.20;;;;;;;;;;769129;180;919081;-61
2023/04/20 08:09:53;;;;;;;57.70;29.10;;;;;;;;;;761782;182;919694;-63
2023/04/20 08:12:19;;;;;;;51.47;22.83;;;;;;;;;;762634;182;902338;-62
2023/04/20 08:14:45;;;;;;;39.90;20.40;;;;;;;;;;765804;182;817969;-62
2023/04/20 08:17:11;;;;;;;59.63;23.37;;;;;;;;;;768585;181;917880;-61
2023/04/20 08:19:36;;;;;;;50.53;26.80;;;;;;;;;;767913;181;913666;-61
2023/04/20 08:22:02;;;;;;;37.63;21.93;;;;;;;;;;771870;182;915389;-60
2023/04/20 08:24:28;;;;;;;41.67;20.13;;;;;;;;;;754798;183;916011;-60
2023/04/20 08:26:54;;;;;;;44.80;24.13;;;;;;;;;;754555;183;915322;-61
2023/04/20 08:29:20;;;;;;;36.23;18.63;;;;;;;;;;762065;182;918816;-62
2023/04/20 08:31:46;;;;;;;48.60;20.87;;;;;;;;;;763610;182;914182;-61
2023/04/20 08:34:11;;;;;;;29.17;17.87;;;;;;;;;;760542;182;915535;-62
2023/04/20 08:36:37;;;;;;;49.23;26.90;;;;;;;;;;768211;181;916150;-60
2023/04/20 08:39:08;;;;;;;36.80;21.30;;;;;;;;;;771685;182;921318;-61
2023/04/20 08:41:34;;;;;;;48.80;25.10;;;;;;;;;;766219;182;919190;-60
2023/04/20 08:44:00;;;;;;;48.47;26.23;;;;;;;;;;761762;182;919197;-62
2023/04/20 08:46:25;;;;;;;42.03;20.47;;;;;;;;;;762248;184;919420;-60
2023/04/20 08:48:51;;;;;;;49.80;24.13;;;;;;;;;;762735;183;920328;-62
2023/04/20 08:51:17;;;;;;;44.37;23.50;;;;;;;;;;771189;179;922312;-61
2023/04/20 08:53:43;;;;;;;48.07;26.87;;;;;;;;;;769148;181;924647;-62
2023/04/20 08:56:09;;;;;;;53.50;28.07;;;;;;;;;;774337;182;819542;-61
2023/04/20 08:58:37;;;;;;;55.20;28.60;;;;;;;;;;769012;181;909955;-60
2023/04/20 09:01:01;;;;;;;66.80;34.55;;;;;;;;;;765234;182;1021067;-62
2023/04/20 09:03:32;;;;;;;55.40;29.80;;;;;;;;;;769214;182;923995;-61
2023/04/20 09:05:58;;;;;;;38.13;20.57;;;;;;;;;;770076;181;918322;-60
2023/04/20 09:08:30;;;;;;;43.70;20.30;;;;;;;;;;760035;182;919131;-60
2023/04/20 09:10:56;;;;;;;42.83;21.17;;;;;;;;;;752604;184;919715;-60
2023/04/20 09:13:21;;;;;;;45.10;20.67;;;;;;;;;;758672;183;814187;-62
2023/04/20 09:15:47;;;;;;;41.93;23.80;;;;;;;;;;767180;182;919966;-61
2023/04/20 09:18:13;;;;;;;45.40;22.23;;;;;;;;;;765613;180;918401;-62
2023/04/20 09:20:39;;;;;;;47.03;22.33;;;;;;;;;;760981;184;815288;-60
2023/04/20 09:23:11;;;;;;;41.27;22.13;;;;;;;;;;754144;183;920374;-60
2023/04/20 09:25:37;;;;;;;34.80;17.10;;;;;;;;;;766732;182;919035;-60
2023/04/20 09:28:02;;;;;;;31.30;18.83;;;;;;;;;;767527;182;919483;-60
2023/04/20 09:30:34;;;;;;;49.67;26.67;;;;;;;;;;769508;182;919367;-60
2023/04/20 09:33:01;;;;;;;37.50;19.87;;;;;;;;;;757264;181;917934;-61
2023/04/20 09:35:27;;;;;;;31.90;17.57;;;;;;;;;;767708;182;857305;-61
2023/04/20 09:37:53;;;;;;;42.70;24.53;;;;;;;;;;766614;181;907817;-63
2023/04/20 09:40:20;;;;;;;49.47;24.63;;;;;;;;;;769181;180;816112;-63
2023/04/20 09:42:44;;;;;;;37.27;19.20;;;;;;;;;;761960;182;915252;-63
2023/04/20 09:45:10;;;;;;;38.30;21.30;;;;;;;;;;752708;182;919331;-62
2023/04/20 09:47:40;;;;;;;31.73;15.47;;;;;;;;;;765921;179;917901;-62
2023/04/20 09:50:02;;;;;;;31.93;17.90;;;;;;;;;;746779;185;916009;-66
2023/04/20 09:52:28;;;;;;;44.90;20.37;;;;;;;;;;761145;183;1024132;-63
2023/04/20 09:54:54;;;;;;;53.73;25.33;;;;;;;;;;767449;184;920299;-60
2023/04/20 09:57:20;;;;;;;43.97;22.97;;;;;;;;;;763367;183;877923;-62
2023/04/20 09:59:45;;;;;;;45.30;21.57;;;;;;;;;;757606;184;920059;-60
2023/04/20 10:02:12;;;;;;;41.63;18.45;;;;;;;;;;761963;183;919138;-60
2023/04/20 10:04:37;;;;;;;49.63;24.00;;;;;;;;;;769494;182;816230;-62
2023/04/20 10:07:05;;;;;;;47.33;27.37;;;;;;;;;;763320;183;928363;-59
2023/04/20 10:09:30;;;;;;;31.10;17.50;;;;;;;;;;762252;182;920315;-59
2023/04/20 10:11:56;;;;;;;34.53;20.83;;;;;;;;;;766870;182;919346;-60
2023/04/20 10:14:22;;;;;;;40.20;23.07;;;;;;;;;;761067;182;1018082;-62
2023/04/20 10:16:54;;;;;;;37.93;24.10;;;;;;;;;;761643;183;1055880;-60
2023/04/20 10:19:20;;;;;;;39.80;21.00;;;;;;;;;;756548;180;940096;-62
2023/04/20 10:21:46;;;;;;;38.07;23.37;;;;;;;;;;758355;182;917863;-60
2023/04/20 10:24:11;;;;;;;27.93;17.77;;;;;;;;;;763754;182;918033;-60
2023/04/20 10:26:38;;;;;;;48.73;24.60;;;;;;;;;;762326;182;918756;-60
2023/04/20 10:29:05;;;;;;;27.25;16.52;;;;;;;;;;770729;181;919901;-63
2023/04/20 10:31:34;;;;;;;49.20;23.80;;;;;;;;;;766775;181;781297;-63
2023/04/20 10:34:00;;;;;;;37.33;20.10;;;;;;;;;;765081;181;924034;-62
2023/04/20 10:36:26;;;;;;;48.13;28.67;;;;;;;;;;763687;181;934852;-60
2023/04/20 10:38:52;;;;;;;28.13;17.00;;;;;;;;;;770521;181;818018;-60
2023/04/20 10:41:18;;;;;;;35.30;22.70;;;;;;;;;;764571;182;716886;-60
2023/04/20 10:43:44;;;;;;;40.25;26.55;;;;;;;;;;761152;180;819681;-60
2023/04/20 10:46:15;;;;;;;26.03;17.10;;;;;;;;;;765058;182;916695;-62
2023/04/20 10:48:47;;;;;;;34.40;19.62;;;;;;;;;;761440;182;816136;-60
2023/04/20 10:51:13;;;;;;;33.67;19.10;;;;;;;;;;761392;181;920763;-60
2023/04/20 10:53:39;;;;;;;35.60;19.87;;;;;;;;;;764414;182;918050;-60
2023/04/20 10:56:05;;;;;;;31.20;19.17;;;;;;;;;;771126;182;920873;-61
2023/04/20 10:58:30;;;;;;;33.27;18.27;;;;;;;;;;761495;180;922258;-62
2023/04/20 11:00:56;;;;;;;33.60;21.20;;;;;;;;;;759753;182;918801;-62
2023/04/20 11:03:22;;;;;;;24.80;16.33;;;;;;;;;;766421;182;901508;-59
2023/04/20 11:05:48;;;;;;;19.73;14.37;;;;;;;;;;765558;182;927063;-62
2023/04/20 11:08:14;;;;;;;27.10;14.90;;;;;;;;;;764989;182;918089;-60
2023/04/20 11:10:41;;;;;;;32.23;18.70;;;;;;;;;;761463;182;924597;-61
2023/04/20 11:13:07;;;;;;;30.13;18.73;;;;;;;;;;764524;182;919465;-60
2023/04/20 11:15:32;;;;;;;33.95;17.35;;;;;;;;;;759897;182;922975;-60
2023/04/20 11:18:10;;;;;;;28.80;18.30;;;;;;;;;;762337;182;918098;-59
2023/04/20 11:20:35;;;;;;;28.27;16.13;;;;;;;;;;761472;182;919866;-60
2023/04/20 11:23:03;;;;;;;22.13;15.20;;;;;;;;;;767982;181;920679;-60
2023/04/20 11:25:27;;;;;;;24.53;18.17;;;;;;;;;;760648;182;919008;-60
2023/04/20 11:27:53;;;;;;;25.77;13.77;;;;;;;;;;759760;182;913122;-62
2023/04/20 11:30:19;;;;;;;17.87;11.73;;;;;;;;;;767921;182;911795;-60
2023/04/20 11:32:45;;;;;;;22.80;14.83;;;;;;;;;;754915;183;859619;-60
2023/04/20 11:35:12;;;;;;;22.83;15.30;;;;;;;;;;763528;181;922269;-62
2023/04/20 11:37:43;;;;;;;22.90;14.47;;;;;;;;;;762918;179;916915;-62
2023/04/20 11:40:10;;;;;;;24.97;13.67;;;;;;;;;;757210;182;915557;-60
2023/04/20 11:42:35;;;;;;;29.57;17.13;;;;;;;;;;766028;181;917912;-62
2023/04/20 11:45:01;;;;;;;17.90;12.13;;;;;;;;;;765774;180;917372;-62
2023/04/20 11:47:27;;;;;;;18.93;10.67;;;;;;;;;;768462;181;918477;-59
2023/04/20 11:49:53;;;;;;;17.83;11.37;;;;;;;;;;764967;182;918785;-59
2023/04/20 11:52:19;;;;;;;21.60;15.13;;;;;;;;;;760361;182;919757;-62
2023/04/20 11:54:45;;;;;;;19.00;9.67;;;;;;;;;;768979;182;620215;-60
2023/04/20 11:57:11;;;;;;;28.37;18.33;;;;;;;;;;762165;182;918901;-60
2023/04/20 11:59:37;;;;;;;46.70;14.53;;;;;;;;;;762708;181;935227;-61
2023/04/20 12:02:03;;;;;;;22.60;15.33;;;;;;;;;;763289;182;921829;-62
2023/04/20 12:04:28;;;;;;;27.90;18.07;;;;;;;;;;765925;182;920847;-62
2023/04/20 12:06:54;;;;;;;22.90;14.03;;;;;;;;;;764391;181;919242;-60
2023/04/20 12:09:20;;;;;;;28.30;14.37;;;;;;;;;;760742;182;919040;-62
2023/04/20 12:11:46;;;;;;;19.53;11.80;;;;;;;;;;763336;181;918030;-63
2023/04/20 12:14:12;;;;;;;20.57;11.63;;;;;;;;;;748909;184;937275;-60
2023/04/20 12:16:37;;;;;;;25.57;13.70;;;;;;;;;;763007;182;919365;-61
2023/04/20 12:19:03;;;;;;;24.47;15.63;;;;;;;;;;765476;182;818751;-62
2023/04/20 12:21:30;;;;;;;31.43;15.13;;;;;;;;;;758600;181;918331;-61
2023/04/20 12:23:57;;;;;;;23.03;14.20;;;;;;;;;;761695;182;919492;-62
2023/04/20 12:26:22;;;;;;;21.90;11.37;;;;;;;;;;767479;182;920593;-61
2023/04/20 12:28:47;;;;;;;24.50;15.53;;;;;;;;;;764299;181;927696;-62
2023/04/20 12:31:13;;;;;;;25.70;16.60;;;;;;;;;;763711;181;923744;-61
2023/04/20 12:33:39;;;;;;;17.33;10.97;;;;;;;;;;765774;182;849717;-63
2023/04/20 12:36:05;;;;;;;19.80;14.00;;;;;;;;;;769054;182;924295;-60
2023/04/20 12:38:31;;;;;;;18.10;10.20;;;;;;;;;;759953;182;914764;-61
2023/04/20 12:40:57;;;;;;;18.23;11.97;;;;;;;;;;762382;182;919322;-60
2023/04/20 12:43:23;;;;;;;21.20;15.77;;;;;;;;;;765180;182;918676;-61
2023/04/20 12:45:49;;;;;;;23.83;14.80;;;;;;;;;;759755;182;920764;-62
2023/04/20 12:48:14;;;;;;;19.20;12.57;;;;;;;;;;762179;182;917145;-60
2023/04/20 12:50:41;;;;;;;21.07;14.47;;;;;;;;;;767965;182;917446;-61
2023/04/20 12:53:06;;;;;;;20.53;12.10;;;;;;;;;;762180;181;919522;-59
2023/04/20 12:55:32;;;;;;;25.87;15.13;;;;;;;;;;763000;181;932733;-61
2023/04/20 12:57:58;;;;;;;15.17;10.30;;;;;;;;;;765417;181;817140;-62
2023/04/20 13:00:24;;;;;;;20.63;13.43;;;;;;;;;;768109;182;919073;-60
2023/04/20 13:02:50;;;;;;;14.30;7.10;;;;;;;;;;764458;181;919504;-62
2023/04/20 13:05:16;;;;;;;14.73;12.10;;;;;;;;;;751937;183;921630;-60
2023/04/20 13:07:41;;;;;;;19.80;11.17;;;;;;;;;;765770;182;919327;-60
2023/04/20 13:10:07;;;;;;;17.47;10.50;;;;;;;;;;760854;182;921421;-60
2023/04/20 13:12:33;;;;;;;14.57;10.83;;;;;;;;;;761369;182;916246;-60
2023/04/20 13:14:59;;;;;;;25.23;14.35;;;;;;;;;;767321;182;918692;-62
2023/04/20 13:17:25;;;;;;;12.53;7.97;;;;;;;;;;761621;182;914549;-59
2023/04/20 13:19:51;;;;;;;16.60;12.20;;;;;;;;;;763549;182;917375;-61
2023/04/20 13:22:17;;;;;;;18.70;11.50;;;;;;;;;;758822;182;918982;-60
2023/04/20 13:24:42;;;;;;;19.00;12.63;;;;;;;;;;766853;181;746440;-60
2023/04/20 13:27:08;;;;;;;17.30;11.97;;;;;;;;;;768204;180;951172;-61
2023/04/20 13:29:34;;;;;;;23.83;11.17;;;;;;;;;;761893;181;917037;-60
2023/04/20 13:32:00;;;;;;;13.00;9.17;;;;;;;;;;765993;182;916739;-60
2023/04/20 13:34:26;;;;;;;12.43;10.03;;;;;;;;;;759126;182;883306;-60
2023/04/20 13:36:52;;;;;;;21.90;9.90;;;;;;;;;;760695;182;920940;-61
2023/04/20 13:39:19;;;;;;;13.47;9.70;;;;;;;;;;752567;184;919028;-61
2023/04/20 13:41:43;;;;;;;15.40;11.17;;;;;;;;;;764037;181;816305;-60
2023/04/20 13:44:14;;;;;;;17.73;11.30;;;;;;;;;;760784;182;921963;-63
2023/04/20 13:46:35;;;;;;;13.57;9.38;;;;;;;;;;762763;182;919158;-60
2023/04/20 13:49:01;;;;;;;20.03;11.00;;;;;;;;;;758554;183;918092;-62
2023/04/20 13:51:27;;;;;;;13.63;8.50;;;;;;;;;;758039;182;926110;-60
2023/04/20 13:53:53;;;;;;;18.23;10.20;;;;;;;;;;763732;182;919306;-62
2023/04/20 13:56:19;;;;;;;21.13;12.10;;;;;;;;;;769494;181;816801;-60